sensor_id;sensor_type;location;lat;lon;timestamp;P1;durP1;ratioP1;P2;durP2;ratioP2
51810;SDS011;52468;40.116;18.296;2023-07-20T00:00:43;20.73;;;12.57;;
51810;SDS011;52468;40.116;18.296;2023-07-20T00:03:12;25.60;;;14.37;;
51810;SDS011;52468;40.116;18.296;2023-07-20T00:05:44;17.95;;;12.48;;
51810;SDS011;52468;40.116;18.296;2023-07-20T00:08:12;17.63;;;11.60;;
51810;SDS011;52468;40.116;18.296;2023-07-20T00:10:41;16.23;;;11.77;;
51810;SDS011;52468;40.116;18.296;2023-07-20T00:13:10;18.43;;;12.10;;
51810;SDS011;52468;40.116;18.296;2023-07-20T00:15:38;19.97;;;11.77;;
51810;SDS011;52468;40.116;18.296;2023-07-20T00:18:07;14.17;;;11.10;;
51810;SDS011;52468;40.116;18.296;2023-07-20T00:20:35;21.73;;;12.00;;
51810;SDS011;52468;40.116;18.296;2023-07-20T00:23:03;21.53;;;12.07;;
51810;SDS011;52468;40.116;18.296;2023-07-20T00:25:32;16.37;;;11.70;;
51810;SDS011;52468;40.116;18.296;2023-07-20T00:28:00;16.37;;;12.20;;
51810;SDS011;52468;40.116;18.296;2023-07-20T00:30:29;15.73;;;11.33;;
51810;SDS011;52468;40.116;18.296;2023-07-20T00:32:57;19.20;;;11.73;;
51810;SDS011;52468;40.116;18.296;2023-07-20T00:35:25;21.30;;;11.80;;
51810;SDS011;52468;40.116;18.296;2023-07-20T00:37:52;14.80;;;11.30;;
51810;SDS011;52468;40.116;18.296;2023-07-20T00:40:21;19.50;;;11.90;;
51810;SDS011;52468;40.116;18.296;2023-07-20T00:42:49;14.87;;;11.33;;
51810;SDS011;52468;40.116;18.296;2023-07-20T00:45:23;19.07;;;11.13;;
51810;SDS011;52468;40.116;18.296;2023-07-20T00:47:53;17.10;;;11.27;;
51810;SDS011;52468;40.116;18.296;2023-07-20T00:50:21;19.60;;;11.13;;
51810;SDS011;52468;40.116;18.296;2023-07-20T00:52:48;17.87;;;11.00;;
51810;SDS011;52468;40.116;18.296;2023-07-20T00:55:18;17.07;;;11.83;;
51810;SDS011;52468;40.116;18.296;2023-07-20T00:57:46;17.60;;;11.47;;
51810;SDS011;52468;40.116;18.296;2023-07-20T01:00:14;15.03;;;13.37;;
51810;SDS011;52468;40.116;18.296;2023-07-20T01:02:43;15.70;;;11.43;;
51810;SDS011;52468;40.116;18.296;2023-07-20T01:05:11;18.93;;;12.67;;
51810;SDS011;52468;40.116;18.296;2023-07-20T01:07:43;13.23;;;11.60;;
51810;SDS011;52468;40.116;18.296;2023-07-20T01:12:55;19.43;;;12.53;;
51810;SDS011;52468;40.116;18.296;2023-07-20T01:15:24;18.80;;;12.03;;
51810;SDS011;52468;40.116;18.296;2023-07-20T01:17:52;14.57;;;11.93;;
51810;SDS011;52468;40.116;18.296;2023-07-20T01:20:20;22.03;;;11.20;;
51810;SDS011;52468;40.116;18.296;2023-07-20T01:31:21;18.55;;;12.30;;
51810;SDS011;52468;40.116;18.296;2023-07-20T01:33:53;16.20;;;12.13;;
51810;SDS011;52468;40.116;18.296;2023-07-20T01:36:24;20.67;;;11.47;;
51810;SDS011;52468;40.116;18.296;2023-07-20T01:38:55;16.70;;;10.17;;
51810;SDS011;52468;40.116;18.296;2023-07-20T01:41:24;14.93;;;11.20;;
51810;SDS011;52468;40.116;18.296;2023-07-20T01:43:52;15.57;;;10.90;;
51810;SDS011;52468;40.116;18.296;2023-07-20T01:46:19;22.33;;;11.30;;
51810;SDS011;52468;40.116;18.296;2023-07-20T01:48:47;15.83;;;10.93;;
51810;SDS011;52468;40.116;18.296;2023-07-20T01:51:15;22.83;;;11.20;;
51810;SDS011;52468;40.116;18.296;2023-07-20T01:53:45;14.63;;;10.93;;
51810;SDS011;52468;40.116;18.296;2023-07-20T01:56:14;15.47;;;10.10;;
51810;SDS011;52468;40.116;18.296;2023-07-20T01:58:42;16.30;;;12.53;;
51810;SDS011;52468;40.116;18.296;2023-07-20T02:01:10;16.07;;;10.30;;
51810;SDS011;52468;40.116;18.296;2023-07-20T02:03:38;17.27;;;11.47;;
51810;SDS011;52468;40.116;18.296;2023-07-20T02:06:06;17.43;;;11.23;;
51810;SDS011;52468;40.116;18.296;2023-07-20T02:08:33;15.80;;;11.43;;
51810;SDS011;52468;40.116;18.296;2023-07-20T02:11:01;18.90;;;10.70;;
51810;SDS011;52468;40.116;18.296;2023-07-20T02:13:30;18.77;;;11.10;;
51810;SDS011;52468;40.116;18.296;2023-07-20T02:15:58;18.47;;;9.90;;
51810;SDS011;52468;40.116;18.296;2023-07-20T02:18:26;20.40;;;10.70;;
51810;SDS011;52468;40.116;18.296;2023-07-20T02:20:54;15.83;;;10.27;;
51810;SDS011;52468;40.116;18.296;2023-07-20T02:23:22;21.33;;;10.83;;
51810;SDS011;52468;40.116;18.296;2023-07-20T02:25:50;16.70;;;9.10;;
51810;SDS011;52468;40.116;18.296;2023-07-20T02:28:18;16.83;;;11.53;;
51810;SDS011;52468;40.116;18.296;2023-07-20T02:30:45;15.20;;;10.27;;
51810;SDS011;52468;40.116;18.296;2023-07-20T02:33:13;21.17;;;10.47;;
51810;SDS011;52468;40.116;18.296;2023-07-20T02:35:41;19.13;;;10.73;;
51810;SDS011;52468;40.116;18.296;2023-07-20T02:38:09;14.43;;;10.23;;
51810;SDS011;52468;40.116;18.296;2023-07-20T02:40:37;14.93;;;9.83;;
51810;SDS011;52468;40.116;18.296;2023-07-20T02:43:05;12.80;;;9.77;;
51810;SDS011;52468;40.116;18.296;2023-07-20T02:45:34;20.27;;;11.23;;
51810;SDS011;52468;40.116;18.296;2023-07-20T02:48:02;14.93;;;8.73;;
51810;SDS011;52468;40.116;18.296;2023-07-20T02:50:30;13.57;;;10.37;;
51810;SDS011;52468;40.116;18.296;2023-07-20T02:52:58;14.77;;;9.40;;
51810;SDS011;52468;40.116;18.296;2023-07-20T02:55:25;17.93;;;10.30;;
51810;SDS011;52468;40.116;18.296;2023-07-20T02:57:53;19.30;;;9.80;;
51810;SDS011;52468;40.116;18.296;2023-07-20T03:00:21;15.87;;;11.03;;
51810;SDS011;52468;40.116;18.296;2023-07-20T03:02:50;15.83;;;10.43;;
51810;SDS011;52468;40.116;18.296;2023-07-20T03:05:22;14.05;;;10.18;;
51810;SDS011;52468;40.116;18.296;2023-07-20T03:07:55;17.17;;;10.88;;
51810;SDS011;52468;40.116;18.296;2023-07-20T03:10:23;12.20;;;10.17;;
51810;SDS011;52468;40.116;18.296;2023-07-20T03:12:51;16.27;;;10.00;;
51810;SDS011;52468;40.116;18.296;2023-07-20T03:15:19;17.03;;;10.57;;
51810;SDS011;52468;40.116;18.296;2023-07-20T03:17:48;19.73;;;12.33;;
51810;SDS011;52468;40.116;18.296;2023-07-20T03:20:16;18.13;;;10.23;;
51810;SDS011;52468;40.116;18.296;2023-07-20T03:22:44;16.57;;;10.90;;
51810;SDS011;52468;40.116;18.296;2023-07-20T03:25:12;19.47;;;11.33;;
51810;SDS011;52468;40.116;18.296;2023-07-20T03:27:40;17.00;;;10.63;;
51810;SDS011;52468;40.116;18.296;2023-07-20T03:30:08;16.57;;;11.03;;
51810;SDS011;52468;40.116;18.296;2023-07-20T03:32:37;14.83;;;10.70;;
51810;SDS011;52468;40.116;18.296;2023-07-20T03:35:05;16.60;;;9.93;;
51810;SDS011;52468;40.116;18.296;2023-07-20T03:37:34;17.87;;;9.67;;
51810;SDS011;52468;40.116;18.296;2023-07-20T03:40:03;19.63;;;10.30;;
51810;SDS011;52468;40.116;18.296;2023-07-20T03:42:32;26.60;;;12.17;;
51810;SDS011;52468;40.116;18.296;2023-07-20T03:45:00;20.83;;;11.97;;
51810;SDS011;52468;40.116;18.296;2023-07-20T03:47:31;25.70;;;12.40;;
51810;SDS011;52468;40.116;18.296;2023-07-20T03:49:59;19.37;;;11.93;;
51810;SDS011;52468;40.116;18.296;2023-07-20T03:52:27;21.30;;;9.80;;
51810;SDS011;52468;40.116;18.296;2023-07-20T03:54:55;19.70;;;11.10;;
51810;SDS011;52468;40.116;18.296;2023-07-20T03:57:23;18.90;;;11.63;;
51810;SDS011;52468;40.116;18.296;2023-07-20T03:59:51;18.80;;;11.33;;
51810;SDS011;52468;40.116;18.296;2023-07-20T04:02:19;19.17;;;10.77;;
51810;SDS011;52468;40.116;18.296;2023-07-20T04:04:47;15.23;;;9.73;;
51810;SDS011;52468;40.116;18.296;2023-07-20T04:07:14;20.70;;;9.73;;
51810;SDS011;52468;40.116;18.296;2023-07-20T04:09:42;18.53;;;9.53;;
51810;SDS011;52468;40.116;18.296;2023-07-20T04:12:10;16.97;;;8.90;;
51810;SDS011;52468;40.116;18.296;2023-07-20T04:14:38;17.47;;;9.90;;
51810;SDS011;52468;40.116;18.296;2023-07-20T04:17:06;16.10;;;9.17;;
51810;SDS011;52468;40.116;18.296;2023-07-20T04:19:34;19.80;;;8.93;;
51810;SDS011;52468;40.116;18.296;2023-07-20T04:22:02;20.10;;;8.83;;
51810;SDS011;52468;40.116;18.296;2023-07-20T04:24:30;15.97;;;8.97;;
51810;SDS011;52468;40.116;18.296;2023-07-20T04:26:58;17.60;;;9.93;;
51810;SDS011;52468;40.116;18.296;2023-07-20T04:29:26;14.07;;;7.33;;
51810;SDS011;52468;40.116;18.296;2023-07-20T04:31:54;11.43;;;8.27;;
51810;SDS011;52468;40.116;18.296;2023-07-20T04:34:22;17.50;;;8.23;;
51810;SDS011;52468;40.116;18.296;2023-07-20T04:36:50;15.18;;;9.77;;
51810;SDS011;52468;40.116;18.296;2023-07-20T04:39:18;17.80;;;8.73;;
51810;SDS011;52468;40.116;18.296;2023-07-20T04:41:53;13.15;;;8.57;;
51810;SDS011;52468;40.116;18.296;2023-07-20T04:44:21;16.30;;;8.82;;
51810;SDS011;52468;40.116;18.296;2023-07-20T04:46:49;16.98;;;9.70;;
51810;SDS011;52468;40.116;18.296;2023-07-20T04:49:17;17.15;;;8.73;;
51810;SDS011;52468;40.116;18.296;2023-07-20T04:51:45;12.45;;;8.93;;
51810;SDS011;52468;40.116;18.296;2023-07-20T04:54:13;18.85;;;10.18;;
51810;SDS011;52468;40.116;18.296;2023-07-20T04:56:41;14.55;;;9.07;;
51810;SDS011;52468;40.116;18.296;2023-07-20T04:59:11;11.30;;;8.95;;
51810;SDS011;52468;40.116;18.296;2023-07-20T05:01:39;13.38;;;9.07;;
51810;SDS011;52468;40.116;18.296;2023-07-20T05:04:07;14.43;;;8.43;;
51810;SDS011;52468;40.116;18.296;2023-07-20T05:06:35;10.88;;;9.77;;
51810;SDS011;52468;40.116;18.296;2023-07-20T05:09:03;14.20;;;9.57;;
51810;SDS011;52468;40.116;18.296;2023-07-20T05:11:31;20.42;;;9.77;;
51810;SDS011;52468;40.116;18.296;2023-07-20T05:13:59;21.73;;;10.73;;
51810;SDS011;52468;40.116;18.296;2023-07-20T05:16:29;23.63;;;10.18;;
51810;SDS011;52468;40.116;18.296;2023-07-20T05:21:29;19.15;;;9.95;;
51810;SDS011;52468;40.116;18.296;2023-07-20T05:23:57;15.52;;;9.02;;
51810;SDS011;52468;40.116;18.296;2023-07-20T05:26:25;17.33;;;9.50;;
51810;SDS011;52468;40.116;18.296;2023-07-20T05:28:53;13.80;;;8.95;;
51810;SDS011;52468;40.116;18.296;2023-07-20T05:31:21;16.30;;;9.15;;
51810;SDS011;52468;40.116;18.296;2023-07-20T05:33:49;19.60;;;9.98;;
51810;SDS011;52468;40.116;18.296;2023-07-20T05:36:17;18.48;;;10.18;;
51810;SDS011;52468;40.116;18.296;2023-07-20T05:38:45;21.42;;;9.38;;
51810;SDS011;52468;40.116;18.296;2023-07-20T05:41:13;10.95;;;8.77;;
51810;SDS011;52468;40.116;18.296;2023-07-20T05:43:40;20.10;;;10.43;;
51810;SDS011;52468;40.116;18.296;2023-07-20T05:46:09;15.23;;;9.02;;
51810;SDS011;52468;40.116;18.296;2023-07-20T05:48:37;20.95;;;10.13;;
51810;SDS011;52468;40.116;18.296;2023-07-20T05:51:05;16.13;;;8.90;;
51810;SDS011;52468;40.116;18.296;2023-07-20T05:53:33;14.85;;;8.30;;
51810;SDS011;52468;40.116;18.296;2023-07-20T05:56:02;12.90;;;7.28;;
51810;SDS011;52468;40.116;18.296;2023-07-20T05:58:30;12.85;;;7.03;;
51810;SDS011;52468;40.116;18.296;2023-07-20T06:00:59;13.88;;;7.05;;
51810;SDS011;52468;40.116;18.296;2023-07-20T06:03:27;12.20;;;6.57;;
51810;SDS011;52468;40.116;18.296;2023-07-20T06:06:01;15.80;;;7.07;;
51810;SDS011;52468;40.116;18.296;2023-07-20T06:08:30;12.57;;;6.78;;
51810;SDS011;52468;40.116;18.296;2023-07-20T06:10:58;10.95;;;6.30;;
51810;SDS011;52468;40.116;18.296;2023-07-20T06:13:26;15.63;;;7.07;;
51810;SDS011;52468;40.116;18.296;2023-07-20T06:15:54;16.42;;;6.68;;
51810;SDS011;52468;40.116;18.296;2023-07-20T06:18:25;14.25;;;6.22;;
51810;SDS011;52468;40.116;18.296;2023-07-20T06:20:53;11.50;;;6.30;;
51810;SDS011;52468;40.116;18.296;2023-07-20T06:23:21;9.65;;;6.35;;
51810;SDS011;52468;40.116;18.296;2023-07-20T06:25:49;17.33;;;6.85;;
51810;SDS011;52468;40.116;18.296;2023-07-20T06:28:16;12.68;;;7.40;;
51810;SDS011;52468;40.116;18.296;2023-07-20T06:30:45;9.60;;;6.28;;
51810;SDS011;52468;40.116;18.296;2023-07-20T06:33:13;8.52;;;6.25;;
51810;SDS011;52468;40.116;18.296;2023-07-20T06:35:41;15.10;;;6.88;;
51810;SDS011;52468;40.116;18.296;2023-07-20T06:38:10;13.35;;;8.57;;
51810;SDS011;52468;40.116;18.296;2023-07-20T06:40:41;16.30;;;7.38;;
51810;SDS011;52468;40.116;18.296;2023-07-20T06:43:08;15.77;;;6.75;;
51810;SDS011;52468;40.116;18.296;2023-07-20T06:45:40;14.00;;;6.80;;
51810;SDS011;52468;40.116;18.296;2023-07-20T06:48:08;16.55;;;7.28;;
51810;SDS011;52468;40.116;18.296;2023-07-20T06:50:36;14.77;;;7.03;;
51810;SDS011;52468;40.116;18.296;2023-07-20T06:53:04;13.15;;;7.25;;
51810;SDS011;52468;40.116;18.296;2023-07-20T06:55:32;14.52;;;6.85;;
51810;SDS011;52468;40.116;18.296;2023-07-20T06:58:05;15.63;;;6.90;;
51810;SDS011;52468;40.116;18.296;2023-07-20T07:00:33;20.85;;;7.22;;
51810;SDS011;52468;40.116;18.296;2023-07-20T07:03:01;16.48;;;7.43;;
51810;SDS011;52468;40.116;18.296;2023-07-20T07:05:30;14.43;;;7.90;;
51810;SDS011;52468;40.116;18.296;2023-07-20T07:08:01;16.05;;;7.15;;
51810;SDS011;52468;40.116;18.296;2023-07-20T07:10:29;14.25;;;6.88;;
51810;SDS011;52468;40.116;18.296;2023-07-20T07:12:57;16.67;;;7.82;;
51810;SDS011;52468;40.116;18.296;2023-07-20T07:15:24;12.55;;;6.53;;
51810;SDS011;52468;40.116;18.296;2023-07-20T07:17:54;13.38;;;6.38;;
51810;SDS011;52468;40.116;18.296;2023-07-20T07:20:23;14.90;;;6.68;;
51810;SDS011;52468;40.116;18.296;2023-07-20T07:22:51;13.75;;;7.03;;
51810;SDS011;52468;40.116;18.296;2023-07-20T07:25:20;17.63;;;6.80;;
51810;SDS011;52468;40.116;18.296;2023-07-20T07:27:49;18.00;;;7.32;;
51810;SDS011;52468;40.116;18.296;2023-07-20T07:30:17;18.00;;;6.40;;
51810;SDS011;52468;40.116;18.296;2023-07-20T07:32:45;14.80;;;7.45;;
51810;SDS011;52468;40.116;18.296;2023-07-20T07:35:13;15.45;;;7.10;;
51810;SDS011;52468;40.116;18.296;2023-07-20T07:37:41;13.20;;;6.57;;
51810;SDS011;52468;40.116;18.296;2023-07-20T07:40:17;15.23;;;6.80;;
51810;SDS011;52468;40.116;18.296;2023-07-20T07:42:45;14.50;;;6.90;;
51810;SDS011;52468;40.116;18.296;2023-07-20T07:45:14;12.88;;;6.07;;
51810;SDS011;52468;40.116;18.296;2023-07-20T07:47:43;9.98;;;6.35;;
51810;SDS011;52468;40.116;18.296;2023-07-20T07:50:11;15.73;;;6.80;;
51810;SDS011;52468;40.116;18.296;2023-07-20T07:52:39;16.98;;;6.32;;
51810;SDS011;52468;40.116;18.296;2023-07-20T07:55:07;15.18;;;6.63;;
51810;SDS011;52468;40.116;18.296;2023-07-20T07:57:35;16.25;;;7.15;;
51810;SDS011;52468;40.116;18.296;2023-07-20T08:00:03;14.00;;;5.97;;
51810;SDS011;52468;40.116;18.296;2023-07-20T08:02:31;15.85;;;6.93;;
51810;SDS011;52468;40.116;18.296;2023-07-20T08:04:59;16.17;;;7.35;;
51810;SDS011;52468;40.116;18.296;2023-07-20T08:07:28;14.15;;;6.32;;
51810;SDS011;52468;40.116;18.296;2023-07-20T08:09:55;14.88;;;5.82;;
51810;SDS011;52468;40.116;18.296;2023-07-20T08:12:23;18.27;;;6.90;;
51810;SDS011;52468;40.116;18.296;2023-07-20T08:14:51;12.07;;;6.07;;
51810;SDS011;52468;40.116;18.296;2023-07-20T08:17:19;17.10;;;6.28;;
51810;SDS011;52468;40.116;18.296;2023-07-20T08:19:47;14.85;;;6.35;;
51810;SDS011;52468;40.116;18.296;2023-07-20T08:22:15;11.32;;;6.80;;
51810;SDS011;52468;40.116;18.296;2023-07-20T08:24:43;17.13;;;5.93;;
51810;SDS011;52468;40.116;18.296;2023-07-20T08:27:12;12.57;;;5.93;;
51810;SDS011;52468;40.116;18.296;2023-07-20T08:29:40;14.02;;;5.22;;
51810;SDS011;52468;40.116;18.296;2023-07-20T08:32:08;23.33;;;7.03;;
51810;SDS011;52468;40.116;18.296;2023-07-20T08:34:35;14.32;;;4.75;;
51810;SDS011;52468;40.116;18.296;2023-07-20T08:37:03;12.60;;;5.13;;
51810;SDS011;52468;40.116;18.296;2023-07-20T08:39:31;10.70;;;5.97;;
51810;SDS011;52468;40.116;18.296;2023-07-20T08:42:00;13.23;;;4.95;;
51810;SDS011;52468;40.116;18.296;2023-07-20T08:44:32;8.75;;;5.22;;
51810;SDS011;52468;40.116;18.296;2023-07-20T08:47:01;12.23;;;6.10;;
51810;SDS011;52468;40.116;18.296;2023-07-20T08:49:31;15.30;;;5.50;;
51810;SDS011;52468;40.116;18.296;2023-07-20T08:51:59;13.13;;;5.35;;
51810;SDS011;52468;40.116;18.296;2023-07-20T08:54:29;10.90;;;5.28;;
51810;SDS011;52468;40.116;18.296;2023-07-20T08:57:04;11.45;;;5.05;;
51810;SDS011;52468;40.116;18.296;2023-07-20T08:59:32;13.05;;;5.78;;
51810;SDS011;52468;40.116;18.296;2023-07-20T09:02:04;12.18;;;4.63;;
51810;SDS011;52468;40.116;18.296;2023-07-20T09:04:32;15.68;;;6.93;;
51810;SDS011;52468;40.116;18.296;2023-07-20T09:07:01;13.50;;;4.97;;
51810;SDS011;52468;40.116;18.296;2023-07-20T09:09:29;14.25;;;5.15;;
51810;SDS011;52468;40.116;18.296;2023-07-20T09:11:57;15.93;;;4.55;;
51810;SDS011;52468;40.116;18.296;2023-07-20T09:14:25;12.07;;;6.07;;
51810;SDS011;52468;40.116;18.296;2023-07-20T09:16:53;14.80;;;6.07;;
51810;SDS011;52468;40.116;18.296;2023-07-20T09:19:22;15.85;;;5.78;;
51810;SDS011;52468;40.116;18.296;2023-07-20T09:21:50;17.85;;;6.55;;
51810;SDS011;52468;40.116;18.296;2023-07-20T09:24:19;16.58;;;5.30;;
51810;SDS011;52468;40.116;18.296;2023-07-20T09:26:48;15.07;;;5.85;;
51810;SDS011;52468;40.116;18.296;2023-07-20T09:29:20;9.25;;;5.25;;
51810;SDS011;52468;40.116;18.296;2023-07-20T09:32:01;14.27;;;5.18;;
51810;SDS011;52468;40.116;18.296;2023-07-20T09:37:03;14.93;;;5.82;;
51810;SDS011;52468;40.116;18.296;2023-07-20T09:39:32;11.98;;;6.93;;
51810;SDS011;52468;40.116;18.296;2023-07-20T09:42:29;12.98;;;5.88;;
51810;SDS011;52468;40.116;18.296;2023-07-20T09:45:00;11.73;;;5.45;;
51810;SDS011;52468;40.116;18.296;2023-07-20T09:47:28;20.25;;;6.03;;
51810;SDS011;52468;40.116;18.296;2023-07-20T09:49:59;14.07;;;4.97;;
51810;SDS011;52468;40.116;18.296;2023-07-20T09:52:33;12.90;;;5.97;;
51810;SDS011;52468;40.116;18.296;2023-07-20T09:57:36;17.08;;;6.15;;
51810;SDS011;52468;40.116;18.296;2023-07-20T10:00:04;14.65;;;5.93;;
51810;SDS011;52468;40.116;18.296;2023-07-20T10:02:44;11.13;;;5.93;;
51810;SDS011;52468;40.116;18.296;2023-07-20T10:05:13;14.73;;;5.22;;
51810;SDS011;52468;40.116;18.296;2023-07-20T10:07:46;19.40;;;6.50;;
51810;SDS011;52468;40.116;18.296;2023-07-20T10:10:16;14.82;;;7.75;;
51810;SDS011;52468;40.116;18.296;2023-07-20T10:12:47;12.77;;;5.45;;
51810;SDS011;52468;40.116;18.296;2023-07-20T10:15:26;15.13;;;6.85;;
51810;SDS011;52468;40.116;18.296;2023-07-20T10:18:07;11.18;;;5.65;;
51810;SDS011;52468;40.116;18.296;2023-07-20T10:20:56;14.15;;;4.70;;
51810;SDS011;52468;40.116;18.296;2023-07-20T10:23:30;14.35;;;6.32;;
51810;SDS011;52468;40.116;18.296;2023-07-20T10:26:00;12.77;;;5.70;;
51810;SDS011;52468;40.116;18.296;2023-07-20T10:28:30;13.73;;;5.05;;
51810;SDS011;52468;40.116;18.296;2023-07-20T10:30:59;14.48;;;5.65;;
51810;SDS011;52468;40.116;18.296;2023-07-20T10:33:27;14.82;;;5.43;;
51810;SDS011;52468;40.116;18.296;2023-07-20T10:35:55;17.48;;;6.45;;
51810;SDS011;52468;40.116;18.296;2023-07-20T10:41:17;19.80;;;7.25;;
51810;SDS011;52468;40.116;18.296;2023-07-20T10:43:46;13.65;;;5.80;;
51810;SDS011;52468;40.116;18.296;2023-07-20T10:46:16;13.93;;;5.70;;
51810;SDS011;52468;40.116;18.296;2023-07-20T10:49:08;13.75;;;5.35;;
51810;SDS011;52468;40.116;18.296;2023-07-20T10:51:43;12.15;;;5.68;;
51810;SDS011;52468;40.116;18.296;2023-07-20T10:56:43;15.02;;;4.85;;
51810;SDS011;52468;40.116;18.296;2023-07-20T10:59:18;11.77;;;6.30;;
51810;SDS011;52468;40.116;18.296;2023-07-20T11:01:47;13.05;;;5.03;;
51810;SDS011;52468;40.116;18.296;2023-07-20T11:04:19;16.48;;;5.03;;
51810;SDS011;52468;40.116;18.296;2023-07-20T11:07:05;15.18;;;5.38;;
51810;SDS011;52468;40.116;18.296;2023-07-20T11:09:33;10.80;;;4.53;;
51810;SDS011;52468;40.116;18.296;2023-07-20T11:12:08;13.52;;;5.07;;
51810;SDS011;52468;40.116;18.296;2023-07-20T11:14:40;12.85;;;5.50;;
51810;SDS011;52468;40.116;18.296;2023-07-20T11:17:13;14.80;;;5.03;;
51810;SDS011;52468;40.116;18.296;2023-07-20T11:19:42;16.83;;;6.07;;
51810;SDS011;52468;40.116;18.296;2023-07-20T11:22:13;12.47;;;4.70;;
51810;SDS011;52468;40.116;18.296;2023-07-20T11:27:12;13.35;;;6.00;;
51810;SDS011;52468;40.116;18.296;2023-07-20T11:29:40;14.23;;;6.15;;
51810;SDS011;52468;40.116;18.296;2023-07-20T11:32:08;15.15;;;5.13;;
51810;SDS011;52468;40.116;18.296;2023-07-20T11:34:36;10.77;;;4.82;;
51810;SDS011;52468;40.116;18.296;2023-07-20T11:37:05;14.05;;;5.03;;
51810;SDS011;52468;40.116;18.296;2023-07-20T11:39:36;14.30;;;5.05;;
51810;SDS011;52468;40.116;18.296;2023-07-20T11:42:04;14.48;;;5.10;;
51810;SDS011;52468;40.116;18.296;2023-07-20T11:44:33;14.07;;;6.03;;
51810;SDS011;52468;40.116;18.296;2023-07-20T11:49:36;15.20;;;6.32;;
51810;SDS011;52468;40.116;18.296;2023-07-20T11:52:09;16.40;;;5.43;;
51810;SDS011;52468;40.116;18.296;2023-07-20T11:54:39;13.38;;;4.78;;
51810;SDS011;52468;40.116;18.296;2023-07-20T11:57:15;15.82;;;6.00;;
51810;SDS011;52468;40.116;18.296;2023-07-20T11:59:53;14.98;;;5.40;;
51810;SDS011;52468;40.116;18.296;2023-07-20T12:02:28;12.10;;;4.53;;
51810;SDS011;52468;40.116;18.296;2023-07-20T12:04:57;11.98;;;5.32;;
51810;SDS011;52468;40.116;18.296;2023-07-20T12:07:26;15.35;;;5.50;;
51810;SDS011;52468;40.116;18.296;2023-07-20T12:10:08;10.98;;;5.65;;
51810;SDS011;52468;40.116;18.296;2023-07-20T12:12:40;17.33;;;6.00;;
51810;SDS011;52468;40.116;18.296;2023-07-20T12:15:20;11.30;;;4.88;;
51810;SDS011;52468;40.116;18.296;2023-07-20T12:17:57;11.75;;;4.85;;
51810;SDS011;52468;40.116;18.296;2023-07-20T12:22:59;10.65;;;5.80;;
51810;SDS011;52468;40.116;18.296;2023-07-20T12:28:16;12.82;;;5.90;;
51810;SDS011;52468;40.116;18.296;2023-07-20T12:30:46;13.10;;;5.22;;
51810;SDS011;52468;40.116;18.296;2023-07-20T12:33:23;14.10;;;5.63;;
51810;SDS011;52468;40.116;18.296;2023-07-20T12:35:51;20.42;;;6.43;;
51810;SDS011;52468;40.116;18.296;2023-07-20T12:40:50;11.82;;;5.50;;
51810;SDS011;52468;40.116;18.296;2023-07-20T12:43:18;13.43;;;5.18;;
51810;SDS011;52468;40.116;18.296;2023-07-20T12:45:46;10.15;;;4.50;;
51810;SDS011;52468;40.116;18.296;2023-07-20T12:48:14;12.50;;;6.38;;
51810;SDS011;52468;40.116;18.296;2023-07-20T12:50:42;14.98;;;5.20;;
51810;SDS011;52468;40.116;18.296;2023-07-20T12:53:11;16.20;;;6.28;;
51810;SDS011;52468;40.116;18.296;2023-07-20T12:55:39;16.05;;;6.53;;
51810;SDS011;52468;40.116;18.296;2023-07-20T12:58:07;8.82;;;6.18;;
51810;SDS011;52468;40.116;18.296;2023-07-20T13:00:35;17.58;;;5.43;;
51810;SDS011;52468;40.116;18.296;2023-07-20T13:03:03;19.17;;;6.20;;
51810;SDS011;52468;40.116;18.296;2023-07-20T13:05:35;10.82;;;4.57;;
51810;SDS011;52468;40.116;18.296;2023-07-20T13:08:06;11.95;;;6.82;;
51810;SDS011;52468;40.116;18.296;2023-07-20T13:10:37;14.95;;;5.47;;
51810;SDS011;52468;40.116;18.296;2023-07-20T13:13:06;14.60;;;5.60;;
51810;SDS011;52468;40.116;18.296;2023-07-20T13:15:41;15.40;;;6.45;;
51810;SDS011;52468;40.116;18.296;2023-07-20T13:18:10;13.45;;;6.15;;
51810;SDS011;52468;40.116;18.296;2023-07-20T13:20:38;14.13;;;5.63;;
51810;SDS011;52468;40.116;18.296;2023-07-20T13:23:06;12.23;;;5.50;;
51810;SDS011;52468;40.116;18.296;2023-07-20T13:25:34;9.00;;;4.97;;
51810;SDS011;52468;40.116;18.296;2023-07-20T13:28:02;19.73;;;6.30;;
51810;SDS011;52468;40.116;18.296;2023-07-20T13:30:30;7.65;;;5.18;;
51810;SDS011;52468;40.116;18.296;2023-07-20T13:32:58;9.80;;;5.18;;
51810;SDS011;52468;40.116;18.296;2023-07-20T13:35:27;14.45;;;6.57;;
51810;SDS011;52468;40.116;18.296;2023-07-20T13:38:14;13.55;;;5.55;;
51810;SDS011;52468;40.116;18.296;2023-07-20T13:40:43;13.57;;;5.13;;
51810;SDS011;52468;40.116;18.296;2023-07-20T13:43:11;12.52;;;5.93;;
51810;SDS011;52468;40.116;18.296;2023-07-20T13:45:39;12.35;;;5.45;;
51810;SDS011;52468;40.116;18.296;2023-07-20T13:48:07;13.35;;;6.55;;
51810;SDS011;52468;40.116;18.296;2023-07-20T13:50:35;9.45;;;6.60;;
51810;SDS011;52468;40.116;18.296;2023-07-20T13:53:05;15.27;;;5.82;;
51810;SDS011;52468;40.116;18.296;2023-07-20T13:55:36;19.20;;;9.27;;
51810;SDS011;52468;40.116;18.296;2023-07-20T13:58:08;12.20;;;6.78;;
51810;SDS011;52468;40.116;18.296;2023-07-20T14:00:38;10.15;;;6.18;;
51810;SDS011;52468;40.116;18.296;2023-07-20T14:03:06;15.45;;;6.47;;
51810;SDS011;52468;40.116;18.296;2023-07-20T14:05:38;13.82;;;8.73;;
51810;SDS011;52468;40.116;18.296;2023-07-20T14:08:08;16.65;;;10.40;;
51810;SDS011;52468;40.116;18.296;2023-07-20T14:10:36;15.63;;;6.70;;
51810;SDS011;52468;40.116;18.296;2023-07-20T14:13:25;19.48;;;6.85;;
51810;SDS011;52468;40.116;18.296;2023-07-20T14:16:00;16.67;;;9.18;;
51810;SDS011;52468;40.116;18.296;2023-07-20T14:18:28;17.10;;;7.10;;
51810;SDS011;52468;40.116;18.296;2023-07-20T14:20:56;12.73;;;6.60;;
51810;SDS011;52468;40.116;18.296;2023-07-20T14:23:24;11.90;;;5.55;;
51810;SDS011;52468;40.116;18.296;2023-07-20T14:25:53;12.52;;;5.32;;
51810;SDS011;52468;40.116;18.296;2023-07-20T14:28:20;10.23;;;5.30;;
51810;SDS011;52468;40.116;18.296;2023-07-20T14:30:48;16.77;;;5.60;;
51810;SDS011;52468;40.116;18.296;2023-07-20T14:33:17;13.38;;;5.50;;
51810;SDS011;52468;40.116;18.296;2023-07-20T14:35:45;10.65;;;5.28;;
51810;SDS011;52468;40.116;18.296;2023-07-20T14:38:13;15.65;;;5.25;;
51810;SDS011;52468;40.116;18.296;2023-07-20T14:40:41;15.88;;;5.97;;
51810;SDS011;52468;40.116;18.296;2023-07-20T14:43:10;15.90;;;6.65;;
51810;SDS011;52468;40.116;18.296;2023-07-20T14:45:38;11.48;;;5.88;;
51810;SDS011;52468;40.116;18.296;2023-07-20T14:48:05;12.73;;;4.97;;
51810;SDS011;52468;40.116;18.296;2023-07-20T14:50:34;10.50;;;5.05;;
51810;SDS011;52468;40.116;18.296;2023-07-20T14:53:02;10.75;;;6.32;;
51810;SDS011;52468;40.116;18.296;2023-07-20T14:55:33;17.77;;;6.93;;
51810;SDS011;52468;40.116;18.296;2023-07-20T14:58:01;12.13;;;4.60;;
51810;SDS011;52468;40.116;18.296;2023-07-20T15:00:29;17.70;;;4.75;;
51810;SDS011;52468;40.116;18.296;2023-07-20T15:02:57;11.45;;;5.90;;
51810;SDS011;52468;40.116;18.296;2023-07-20T15:05:25;10.98;;;5.07;;
51810;SDS011;52468;40.116;18.296;2023-07-20T15:07:56;14.43;;;5.13;;